EGEC

Campbeltown Airport

Campbeltown, United Kingdom
METAR EGEC 161650Z 12017KT 090V150 9999 SCT025 12/10 Q1022
Observed Flight Rules
Nov-16 @ 16:50 UTC (16 hours ago) Visual Flight Rules
Wind Visibility Clouds
120° at 17 knots 10,000+ meters
  • Scattered at 2,500' AGL
Temperatures Readings
Current 12°C / 54°F
Dewpoint 10°C / 50°F
Humidity 88%
Altimeter 30.18" Hg
Pressure 1022 hPa
Elevation 13
METAR EGEC 161650Z 12017KT 090V150 9999 SCT025 12/10 Q1022
Observed Flight Rules
Nov-16 @ 16:50 UTC
(16 hours ago)
VFR
Wind Visibility
120° at 17 knots 10,000+ meters
Clouds
  • Scattered at 2,500' AGL
Temperature Dewpoint
12°C / 54°F 10°C / 50°F
Humidity Altimeter Pressure
88% 30.18" Hg 1022 hPa